Aérodrome :
LOGIN :

S'inscrire | Disclaimer

   EN    FR    IT 

 










Légende :    VFR   VFR Marginal   IFR   IFR Intensif   IFR Très Intensif
Visi : 
Plafond : 
>= 8 km
>= 3000ft
5 à 8 km
1000 à 3000 ft
1500m à 5 km
500 à 1000 ft
800 à 1500m
200 à 500 ft
< 800m
< 200 ft
Symboles :   Orages  Brouillard  Fortes neiges  Fortes précipitations  Vent > 20 kt
SIGMETs :   Divers  Orages  Givrage  Turbulence  Onde Orograph.  Cendres Volcan.






- Altitude de l'aérodrome : 13 ft
- Code IATA : CAG


LIEE - Cagliari Elmas

DERNIER METAR :
  • 020620Z 06003KT 9999 FEW040 07/06 Q1013

METARs EXPIRÉS :
  • 020550Z 02003KT 9999 FEW040 08/06 Q1013
  • 020520Z 02004KT 9999 FEW045 08/06 Q1013
  • 020450Z 02004KT 9999 FEW045 08/06 Q1013
  • 020420Z 01004KT 9999 FEW045 08/06 Q1013
  • 012050Z 34011KT 9999 FEW045 11/07 Q1011
  • 020350Z 01004KT 320V050 9999 FEW040 09/06 Q1012
  • 020320Z 03006KT 9999 FEW040 09/07 Q1012
  • 020250Z 03004KT 9999 FEW040 09/06 Q1013
  • 020220Z 02007KT CAVOK 08/06 Q1013
  • 020150Z 35006KT CAVOK 08/06 Q1013

TAF TAF LIEE
Valide du 02 à 06h jusqu'au 03 à 06h UTC


020500Z 0206/0306 35007KT 9999 SCT025
TEMPO 0206/0208 2000 BR
BECMG 0210/0212 26010KT
BECMG 0216/0218 15006KT



MET'MAP, la Météo Aéronautique d'un coup d'oeil ! - Copyright ORBIFLY Décembre 2007 - Disclaimer

ORBIFLY MET'MAP TEAM :

Programmation & Développement : Alexandra Zaïnal
Sur une idée originale de : Baudouin d'Aumeries
Soutien technique & logistique : Manuel Goepfert
Assistance : Marc-Olivier Méhu




SOURCES & CREDITS :

   NOAA